Mocanaqua, Pennsylvania
Current Conditions -  °F | °C
As of 4:15 PM on Thursday 20 Nov 2014 (Local Time) from KHZL Reporting Station
Clear Clear  
Wind Chill: 26°   Ceiling: Unl
Heat Index: 32°   Visibility: 10mi
Dew Point: 14°   Wind: 7mph
Humidity: 47%   Direction: 250°WSW
Pressure: 29.88"   Gusts: NA
Location:  41.1968°N, 76.1956°W
Report Text: KHZL 202115Z AUTO 25006KT 10SM CLR 00/M10 A2988 RMK AO2
Loading
Personal Weather Stations






























Interactive Weather Map New forecast layout! Learn more

10-Day Weather Forecast

Advertisements
Track Severe Weather on mobile